createdAt,value
2022-10-30T00:02:05.471Z,92.88
2022-10-30T00:07:07.028Z,92.33
2022-10-30T00:12:08.508Z,93.30
2022-10-30T00:17:10.012Z,93.16
2022-10-30T00:22:11.510Z,92.85
2022-10-30T00:27:13.007Z,93.19
2022-10-30T00:32:14.518Z,93.88
2022-10-30T00:37:18.014Z,93.51
2022-10-30T00:42:19.506Z,92.96
2022-10-30T00:47:36.190Z,92.82
2022-10-30T00:52:42.058Z,93.40
2022-10-30T00:57:44.319Z,93.12
2022-10-30T01:02:46.016Z,93.48
2022-10-30T01:07:47.606Z,93.58
2022-10-30T01:12:50.374Z,94.16
2022-10-30T01:18:13.655Z,93.73
2022-10-30T01:23:35.228Z,93.94
2022-10-30T01:28:55.415Z,94.18
2022-10-30T01:34:47.246Z,93.52
2022-10-30T01:39:48.831Z,93.28
2022-10-30T01:44:50.394Z,93.20
2022-10-30T01:50:14.697Z,92.96
2022-10-30T01:55:19.164Z,92.84
2022-10-30T02:00:21.342Z,93.53
2022-10-30T02:05:42.996Z,94.25
2022-10-30T02:10:46.665Z,94.24
2022-10-30T02:15:49.043Z,94.79
2022-10-30T02:20:50.698Z,93.75
2022-10-30T02:25:52.278Z,93.38
2022-10-30T02:30:53.812Z,93.35
2022-10-30T02:35:55.349Z,93.58
2022-10-30T02:40:58.423Z,93.44
2022-10-30T02:46:00.035Z,93.20
2022-10-30T02:51:02.509Z,93.20
2022-10-30T02:56:06.057Z,94.38
2022-10-30T03:01:13.041Z,93.68
2022-10-30T03:06:16.611Z,93.45
2022-10-30T03:11:19.678Z,93.94
2022-10-30T03:16:24.520Z,93.56
2022-10-30T03:21:27.343Z,93.75
2022-10-30T03:26:28.893Z,93.65
2022-10-30T03:31:37.577Z,93.42
2022-10-30T03:36:55.248Z,92.81
2022-10-30T03:41:57.259Z,93.08
2022-10-30T03:46:58.942Z,94.36
2022-10-30T03:52:12.211Z,93.84
2022-10-30T03:57:13.814Z,92.85
2022-10-30T04:02:27.267Z,93.10
2022-10-30T04:07:29.830Z,92.98
2022-10-30T04:12:31.367Z,92.79
2022-10-30T04:17:32.915Z,92.86
2022-10-30T04:22:38.457Z,93.07
2022-10-30T04:27:41.410Z,93.27
2022-10-30T04:32:49.300Z,93.36
2022-10-30T04:38:00.827Z,94.56
2022-10-30T04:43:05.911Z,95.02
2022-10-30T04:48:13.479Z,94.29
2022-10-30T04:53:18.119Z,93.73
2022-10-30T04:58:22.538Z,94.88
2022-10-30T05:03:32.916Z,93.46
2022-10-30T05:08:35.421Z,93.18
2022-10-30T05:13:46.200Z,93.72
2022-10-30T05:18:47.883Z,93.96
2022-10-30T05:23:49.359Z,94.54
2022-10-30T05:28:51.155Z,94.81
2022-10-30T05:33:52.684Z,94.23
2022-10-30T05:38:54.989Z,94.02
2022-10-30T05:44:05.825Z,93.93
2022-10-30T05:49:08.476Z,93.66
2022-10-30T05:54:10.135Z,93.27
2022-10-30T05:59:18.084Z,92.99
2022-10-30T06:04:20.760Z,92.76
2022-10-30T06:09:23.087Z,93.67
2022-10-30T06:14:42.859Z,92.67
2022-10-30T06:19:44.379Z,92.18
2022-10-30T06:25:17.627Z,92.60
2022-10-30T06:30:53.950Z,92.57
2022-10-30T06:35:55.653Z,92.95
2022-10-30T06:40:57.775Z,93.62
2022-10-30T06:46:19.794Z,92.32
2022-10-30T06:51:21.634Z,93.20
2022-10-30T06:56:23.386Z,92.35
2022-10-30T07:01:45.956Z,92.25
2022-10-30T07:06:50.684Z,91.42
2022-10-30T07:11:56.929Z,91.49
2022-10-30T07:17:17.284Z,91.68
2022-10-30T07:22:25.717Z,90.95
2022-10-30T07:27:29.231Z,90.85
2022-10-30T07:33:04.087Z,90.56
2022-10-30T07:38:25.562Z,90.72
2022-10-30T07:43:32.721Z,90.17
2022-10-30T07:48:56.929Z,90.04
2022-10-30T07:54:03.870Z,90.20
2022-10-30T07:59:07.334Z,90.45
2022-10-30T08:04:13.988Z,90.61
2022-10-30T08:09:15.672Z,90.95
2022-10-30T08:14:18.744Z,90.63
2022-10-30T08:19:20.318Z,90.24
2022-10-30T08:24:22.758Z,90.39
2022-10-30T08:29:27.043Z,90.21
2022-10-30T08:34:31.683Z,89.64
2022-10-30T08:39:38.783Z,89.23
2022-10-30T08:44:59.700Z,88.92
2022-10-30T08:50:26.427Z,88.36
2022-10-30T08:55:28.051Z,88.31
2022-10-30T09:00:31.533Z,88.25
2022-10-30T09:05:53.017Z,88.24
2022-10-30T09:11:12.978Z,88.36
2022-10-30T09:16:14.497Z,87.18
2022-10-30T09:21:16.195Z,87.23
2022-10-30T09:26:21.029Z,87.49
2022-10-30T09:31:58.712Z,87.33
2022-10-30T09:37:01.793Z,86.60
2022-10-30T09:42:21.747Z,86.55
2022-10-30T09:47:43.626Z,86.56
2022-10-30T09:53:10.841Z,86.79
2022-10-30T09:58:48.074Z,86.43
2022-10-30T10:03:56.752Z,86.12
2022-10-30T10:09:23.384Z,86.13
2022-10-30T10:14:51.547Z,85.77
2022-10-30T10:20:00.737Z,85.52
2022-10-30T10:25:03.918Z,85.15
2022-10-30T10:30:13.016Z,85.51
2022-10-30T10:35:48.330Z,85.49
2022-10-30T10:41:23.672Z,85.72
2022-10-30T10:46:43.385Z,85.88
2022-10-30T10:51:59.352Z,85.42
2022-10-30T10:57:04.001Z,85.06
2022-10-30T11:02:05.643Z,85.33
2022-10-30T11:07:26.454Z,84.83
2022-10-30T11:12:33.741Z,84.77
2022-10-30T11:18:10.172Z,85.05
2022-10-30T11:23:41.560Z,84.76
2022-10-30T11:28:50.575Z,84.82
2022-10-30T11:33:52.125Z,84.66
2022-10-30T11:38:55.975Z,84.67
2022-10-30T11:43:57.523Z,84.25
2022-10-30T11:48:59.046Z,83.95
2022-10-30T11:54:01.247Z,84.38
2022-10-30T11:59:04.347Z,84.23
2022-10-30T12:04:27.174Z,84.35
2022-10-30T12:09:29.432Z,83.63
2022-10-30T12:14:30.970Z,83.99
2022-10-30T12:19:32.466Z,84.10
2022-10-30T12:24:36.942Z,83.77
2022-10-30T12:30:07.242Z,83.45
2022-10-30T12:35:17.211Z,83.12
2022-10-30T12:40:25.705Z,83.22
2022-10-30T12:45:42.779Z,83.27
2022-10-30T12:50:57.060Z,83.58
2022-10-30T12:56:01.699Z,82.88
2022-10-30T13:01:26.649Z,83.07
2022-10-30T13:06:31.861Z,80.75
2022-10-30T13:11:40.372Z,80.40
2022-10-30T13:16:41.910Z,80.25
2022-10-30T13:22:02.020Z,80.31
2022-10-30T13:27:15.625Z,80.47
2022-10-30T13:32:45.379Z,80.38
2022-10-30T13:37:58.560Z,80.13
2022-10-30T13:43:25.550Z,80.37
2022-10-30T13:48:44.877Z,79.28
2022-10-30T13:53:49.197Z,79.48
2022-10-30T13:59:00.131Z,79.18
2022-10-30T14:04:13.893Z,78.93
2022-10-30T14:09:26.589Z,79.19
2022-10-30T14:14:31.746Z,79.59
2022-10-30T14:19:33.218Z,79.52
2022-10-30T14:24:34.992Z,79.45
2022-10-30T14:29:41.406Z,79.53
2022-10-30T14:34:51.893Z,79.89
2022-10-30T14:39:54.724Z,79.79
2022-10-30T14:45:18.228Z,80.35
2022-10-30T14:50:28.327Z,80.30
2022-10-30T14:55:50.258Z,80.55
2022-10-30T15:01:16.583Z,80.96
2022-10-30T15:06:36.327Z,81.21
2022-10-30T15:12:01.111Z,81.56
2022-10-30T15:17:02.845Z,81.95
2022-10-30T15:22:04.382Z,82.35
2022-10-30T15:27:05.970Z,82.94
2022-10-30T15:32:27.756Z,83.25
2022-10-30T15:37:29.864Z,83.84
2022-10-30T15:42:31.416Z,84.34
2022-10-30T15:47:33.201Z,84.47
2022-10-30T15:52:35.102Z,84.63
2022-10-30T15:58:03.464Z,84.96
2022-10-30T16:03:17.138Z,85.14
2022-10-30T16:08:23.070Z,85.10
2022-10-30T16:13:31.148Z,85.14
2022-10-30T16:18:35.817Z,85.24
2022-10-30T16:23:41.205Z,85.69
2022-10-30T16:28:47.563Z,85.83
2022-10-30T16:33:49.359Z,85.73
2022-10-30T16:38:51.056Z,85.89
2022-10-30T16:44:12.475Z,86.20
2022-10-30T16:49:17.504Z,86.27
2022-10-30T16:54:21.370Z,86.50
2022-10-30T16:59:32.906Z,86.33
2022-10-30T17:04:34.959Z,86.86
2022-10-30T17:09:38.054Z,86.64
2022-10-30T17:14:54.449Z,87.05
2022-10-30T17:20:06.721Z,87.16
2022-10-30T17:25:17.133Z,87.53
2022-10-30T17:30:29.311Z,87.31
2022-10-30T17:35:30.785Z,87.38
2022-10-30T17:40:32.260Z,87.75
2022-10-30T17:45:33.727Z,87.97
2022-10-30T17:50:35.215Z,88.00
2022-10-30T17:55:38.593Z,87.87
2022-10-30T18:00:40.164Z,88.92
2022-10-30T18:05:43.086Z,88.13
2022-10-30T18:10:44.751Z,88.45
2022-10-30T18:15:52.093Z,88.24
2022-10-30T18:20:53.602Z,88.17
2022-10-30T18:25:55.116Z,89.21
2022-10-30T18:30:58.542Z,88.60
2022-10-30T18:36:00.123Z,88.42
2022-10-30T18:41:01.621Z,88.67
2022-10-30T18:46:03.087Z,88.51
2022-10-30T18:51:05.639Z,90.21
2022-10-30T18:56:09.710Z,89.51
2022-10-30T19:01:13.217Z,89.68
2022-10-30T19:06:20.823Z,89.10
2022-10-30T19:11:25.042Z,88.75
2022-10-30T19:16:28.296Z,88.86
2022-10-30T19:21:33.375Z,89.00
2022-10-30T19:26:34.889Z,88.69
2022-10-30T19:31:36.439Z,88.86
2022-10-30T19:36:38.132Z,89.83
2022-10-30T19:41:40.090Z,90.06
2022-10-30T19:46:41.709Z,89.48
2022-10-30T19:51:43.252Z,88.97
2022-10-30T19:56:44.768Z,89.20
2022-10-30T20:01:46.419Z,89.01
2022-10-30T20:06:48.027Z,89.55
2022-10-30T20:11:49.564Z,89.55
2022-10-30T20:16:51.050Z,89.36
2022-10-30T20:21:52.554Z,89.20
2022-10-30T20:26:56.819Z,88.94
2022-10-30T20:31:58.327Z,89.08
2022-10-30T20:36:59.817Z,88.79
2022-10-30T20:42:01.359Z,89.07
2022-10-30T20:47:02.848Z,89.34
2022-10-30T20:52:04.490Z,89.38
2022-10-30T20:57:06.001Z,89.70
2022-10-30T21:02:10.515Z,89.35
2022-10-30T21:07:12.091Z,89.78
2022-10-30T21:12:13.592Z,89.82
2022-10-30T21:17:15.103Z,90.34
2022-10-30T21:22:16.656Z,89.91
2022-10-30T21:27:18.206Z,89.61
2022-10-30T21:32:19.730Z,89.67
2022-10-30T21:37:21.327Z,89.75
2022-10-30T21:42:22.848Z,89.87
2022-10-30T21:47:24.399Z,89.79
2022-10-30T21:52:25.900Z,89.85
2022-10-30T21:57:28.677Z,90.12
2022-10-30T22:02:30.267Z,90.04
2022-10-30T22:07:31.755Z,90.01
2022-10-30T22:12:33.293Z,90.10
2022-10-30T22:17:35.210Z,90.26
2022-10-30T22:22:36.862Z,90.46
2022-10-30T22:27:38.399Z,90.42
2022-10-30T22:32:39.943Z,90.18
2022-10-30T22:37:41.460Z,90.24
2022-10-30T22:42:42.980Z,89.75
2022-10-30T22:47:44.461Z,90.67
2022-10-30T22:52:45.967Z,90.47
2022-10-30T22:57:47.458Z,90.29
2022-10-30T23:02:48.983Z,90.22
2022-10-30T23:07:51.312Z,90.47
2022-10-30T23:12:52.807Z,90.44
2022-10-30T23:17:54.332Z,90.12
2022-10-30T23:22:55.811Z,90.19
2022-10-30T23:27:57.565Z,90.29
2022-10-30T23:32:59.318Z,90.23
2022-10-30T23:38:01.097Z,90.17
2022-10-30T23:43:03.052Z,90.28
2022-10-30T23:48:05.009Z,90.74
2022-10-30T23:53:06.500Z,90.75
2022-10-30T23:58:08.130Z,90.92
